Time;durP1;ratioP1;P1;durP2;ratioP2;P2;SDS_P1;SDS_P2;PMS_P1;PMS_P2;Temp;Humidity;BMP_temperature;BMP_pressure;BME280_temperature;BME280_humidity;BME280_pressure;Samples;Min_cycle;Max_cycle;Signal;HPM_P1;HPM_P2
2023/06/22 00:01:04;;;;;;;7.78;7.07;;;;;;;24.05;100.00;99227.00;5050200;28;20204;-77
2023/06/22 00:03:35;;;;;;;7.40;6.70;;;;;;;24.09;100.00;99214.78;5041276;28;20753;-77
2023/06/22 00:06:05;;;;;;;7.15;6.55;;;;;;;24.02;100.00;99203.00;5048040;28;20284;-77
2023/06/22 00:08:33;;;;;;;8.98;7.07;;;;;;;23.96;100.00;99193.78;5049523;28;20265;-77
2023/06/22 00:11:02;;;;;;;7.00;6.40;;;;;;;24.04;100.00;99179.34;5042364;28;20488;-77
2023/06/22 00:13:31;;;;;;;6.93;6.22;;;;;;;24.10;100.00;99165.88;5066378;27;20194;-77
2023/06/22 00:16:01;;;;;;;7.50;6.78;;;;;;;24.04;100.00;99142.28;5136940;27;20651;-77
2023/06/22 00:18:32;;;;;;;7.95;7.13;;;;;;;23.85;100.00;99113.06;5129109;27;20258;-77
2023/06/22 00:21:02;;;;;;;8.60;6.60;;;;;;;23.80;100.00;99075.72;5133578;27;20235;-77
2023/06/22 00:23:33;;;;;;;9.93;6.85;;;;;;;23.62;100.00;99051.72;5129788;27;20205;-77
2023/06/22 00:26:03;;;;;;;7.90;7.10;;;;;;;23.57;100.00;99061.38;5134699;27;20198;-77
2023/06/22 00:28:33;;;;;;;7.45;6.75;;;;;;;23.53;100.00;99082.53;5130516;27;20222;-77
2023/06/22 00:31:02;;;;;;;13.07;7.10;;;;;;;23.37;100.00;99086.25;5128224;27;20202;-77
2023/06/22 00:33:30;;;;;;;7.90;7.03;;;;;;;23.11;100.00;99101.97;5129818;27;20222;-77
2023/06/22 00:35:58;;;;;;;8.30;7.50;;;;;;;22.83;100.00;99110.56;5131555;27;20202;-77
2023/06/22 00:38:27;;;;;;;7.93;6.88;;;;;;;22.60;100.00;99125.03;5123502;27;20229;-77
2023/06/22 00:40:55;;;;;;;9.75;7.47;;;;;;;22.78;100.00;99123.78;5127993;28;20226;-77
2023/06/22 00:43:23;;;;;;;7.75;6.90;;;;;;;22.71;100.00;99124.66;5131426;28;20290;-77
2023/06/22 00:45:56;;;;;;;7.93;6.88;;;;;;;22.84;100.00;99127.63;5125176;28;20195;-77
2023/06/22 00:48:26;;;;;;;7.40;6.57;;;;;;;22.99;100.00;99139.38;5128963;28;20294;-77
2023/06/22 00:50:55;;;;;;;8.48;7.68;;;;;;;23.02;100.00;99152.53;5125598;28;20195;-77
2023/06/22 00:53:24;;;;;;;8.32;7.53;;;;;;;22.94;100.00;99149.03;5122690;27;20218;-77
2023/06/22 00:55:53;;;;;;;7.38;6.68;;;;;;;23.04;100.00;99161.28;5129154;28;20198;-78
2023/06/22 00:58:22;;;;;;;7.45;6.47;;;;;;;23.14;100.00;99156.50;5128689;28;20229;-77
2023/06/22 01:00:51;;;;;;;7.38;6.45;;;;;;;22.91;100.00;99165.59;5127884;28;20230;-77
2023/06/22 01:03:20;;;;;;;7.90;7.07;;;;;;;23.02;100.00;99168.72;5125181;28;20292;-77
2023/06/22 01:05:51;;;;;;;8.32;7.05;;;;;;;23.03;100.00;99169.56;5131778;28;20224;-77
2023/06/22 01:08:31;;;;;;;7.65;6.85;;;;;;;22.99;100.00;99173.66;5128929;28;20195;-77
2023/06/22 01:11:16;;;;;;;8.48;7.40;;;;;;;22.89;100.00;99176.59;5129730;28;20214;-77
2023/06/22 01:13:52;;;;;;;8.05;7.22;;;;;;;22.80;100.00;99185.72;5127574;28;20201;-77
2023/06/22 01:16:26;;;;;;;8.00;7.10;;;;;;;22.83;100.00;99191.59;5131592;28;20202;-77
2023/06/22 01:19:01;;;;;;;8.30;7.38;;;;;;;22.72;100.00;99204.66;5126899;28;20266;-77
2023/06/22 01:21:32;;;;;;;7.93;7.10;;;;;;;22.64;100.00;99208.22;5131585;28;20217;-77
2023/06/22 01:24:16;;;;;;;8.90;7.57;;;;;;;22.59;100.00;99215.16;5128080;28;20212;-77
2023/06/22 01:26:58;;;;;;;8.23;7.50;;;;;;;22.59;100.00;99225.97;5125516;28;20645;-76
2023/06/22 01:29:30;;;;;;;9.40;8.13;;;;;;;22.53;100.00;99231.03;5132341;28;20285;-76
2023/06/22 01:32:00;;;;;;;9.13;7.95;;;;;;;22.19;100.00;99252.84;5123653;28;20202;-76
2023/06/22 01:34:30;;;;;;;9.57;8.63;;;;;;;21.60;100.00;99264.75;5128289;28;20190;-76
2023/06/22 01:37:02;;;;;;;11.52;8.40;;;;;;;21.27;100.00;99280.03;5131584;28;20241;-77
2023/06/22 01:39:32;;;;;;;10.63;9.50;;;;;;;21.10;100.00;99292.53;5065977;27;1461938;-76
2023/06/22 01:42:03;;;;;;;11.05;9.45;;;;;;;20.69;100.00;99305.81;5128980;27;20186;-76
2023/06/22 01:44:35;;;;;;;10.77;9.05;;;;;;;20.90;100.00;99313.50;5125729;27;20203;-76
2023/06/22 01:47:04;;;;;;;10.68;9.60;;;;;;;21.13;100.00;99309.25;5129669;27;20192;-76
2023/06/22 01:49:33;;;;;;;10.20;9.20;;;;;;;21.39;100.00;99319.97;5063373;28;20255;-76
2023/06/22 01:52:01;;;;;;;10.45;9.32;;;;;;;21.63;100.00;99326.47;5063649;28;20228;-76
2023/06/22 01:54:30;;;;;;;10.75;9.60;;;;;;;21.38;100.00;99320.97;5063836;28;20200;-77
2023/06/22 01:57:00;;;;;;;10.60;9.50;;;;;;;21.33;100.00;99300.94;5064250;28;20207;-76
2023/06/22 01:59:39;;;;;;;11.32;9.60;;;;;;;21.60;100.00;99302.50;5064259;28;20196;-76
2023/06/22 02:02:10;;;;;;;11.68;10.30;;;;;;;21.59;100.00;99293.56;5067978;28;20666;-76
2023/06/22 02:04:47;;;;;;;12.20;9.70;;;;;;;21.63;100.00;99277.94;5057809;28;20208;-76
2023/06/22 02:07:22;;;;;;;11.43;10.23;;;;;;;21.72;100.00;99271.53;5064043;28;20215;-77
2023/06/22 02:09:54;;;;;;;10.73;9.57;;;;;;;21.77;100.00;99255.69;5066847;28;20591;-76
2023/06/22 02:12:24;;;;;;;11.57;9.48;;;;;;;21.80;100.00;99247.25;5064331;28;20189;-76
2023/06/22 02:14:55;;;;;;;12.15;9.00;;;;;;;21.67;100.00;99253.16;5107667;27;20629;-76
2023/06/22 02:17:25;;;;;;;10.95;9.80;;;;;;;21.80;100.00;99249.94;5126278;27;20214;-76
2023/06/22 02:19:53;;;;;;;10.63;9.48;;;;;;;21.79;100.00;99245.56;5127488;27;20194;-76
2023/06/22 02:22:23;;;;;;;10.95;9.85;;;;;;;21.67;100.00;99242.38;5126352;27;20202;-77
2023/06/22 02:24:52;;;;;;;11.57;9.80;;;;;;;21.53;100.00;99239.50;5134566;27;20198;-76
2023/06/22 02:27:21;;;;;;;11.35;9.55;;;;;;;21.36;100.00;99239.44;5125053;27;20202;-77
2023/06/22 02:29:50;;;;;;;11.20;9.98;;;;;;;21.40;100.00;99234.56;5126534;27;20676;-76
2023/06/22 02:32:20;;;;;;;11.40;10.25;;;;;;;21.37;100.00;99235.75;5127640;27;20289;-76
2023/06/22 02:34:50;;;;;;;10.70;9.70;;;;;;;21.26;100.00;99236.06;5122841;27;20222;-76
2023/06/22 02:37:19;;;;;;;11.02;9.93;;;;;;;21.29;100.00;99242.97;5122473;27;20198;-76
2023/06/22 02:39:47;;;;;;;14.55;10.32;;;;;;;21.35;100.00;99245.84;5119519;27;20218;-76
2023/06/22 02:42:20;;;;;;;11.30;10.15;;;;;;;21.40;100.00;99243.50;5125437;27;20198;-76
2023/06/22 02:44:49;;;;;;;13.38;10.35;;;;;;;21.37;100.00;99238.44;5128904;27;20277;-77
2023/06/22 02:47:19;;;;;;;10.60;9.50;;;;;;;21.53;100.00;99224.16;5124438;27;20380;-76
2023/06/22 02:49:48;;;;;;;11.43;10.23;;;;;;;21.54;100.00;99215.06;5123355;27;20194;-76
2023/06/22 02:52:16;;;;;;;11.20;10.15;;;;;;;21.42;100.00;99201.06;5134057;27;20193;-76
2023/06/22 02:54:45;;;;;;;13.98;10.25;;;;;;;21.28;100.00;99180.16;5041285;28;20197;-76
2023/06/22 02:57:14;;;;;;;11.55;10.20;;;;;;;21.24;100.00;99164.47;5048051;28;20196;-76
2023/06/22 02:59:43;;;;;;;11.90;10.80;;;;;;;21.37;100.00;99176.47;5043371;28;20209;-76
2023/06/22 03:02:12;;;;;;;11.63;10.40;;;;;;;21.33;100.00;99196.69;5060031;28;20196;-77
2023/06/22 03:04:42;;;;;;;11.43;10.33;;;;;;;21.36;100.00;99198.19;5060399;28;20192;-76
2023/06/22 03:07:13;;;;;;;11.30;10.25;;;;;;;21.46;100.00;99180.00;5070285;28;20192;-77
2023/06/22 03:09:43;;;;;;;12.00;10.85;;;;;;;21.36;100.00;99180.16;5059066;28;20200;-77
2023/06/22 03:12:12;;;;;;;11.55;10.43;;;;;;;21.26;100.00;99184.88;5076688;27;20198;-77
2023/06/22 03:14:41;;;;;;;11.45;10.15;;;;;;;21.09;100.00;99185.81;5124699;27;20235;-76
2023/06/22 03:17:11;;;;;;;12.02;10.20;;;;;;;21.23;100.00;99187.00;5122189;27;20211;-76
2023/06/22 03:19:42;;;;;;;11.77;10.57;;;;;;;21.32;100.00;99192.28;5121802;27;20218;-77
2023/06/22 03:22:11;;;;;;;11.82;10.63;;;;;;;21.17;100.00;99187.69;5128155;27;20686;-76
2023/06/22 03:24:42;;;;;;;11.77;10.55;;;;;;;21.22;100.00;99185.31;5123697;27;20202;-76
2023/06/22 03:27:11;;;;;;;12.77;11.40;;;;;;;21.25;100.00;99195.78;5125542;27;20198;-77
2023/06/22 03:29:40;;;;;;;12.93;11.50;;;;;;;21.01;100.00;99189.31;5127385;28;20198;-77
2023/06/22 03:32:08;;;;;;;12.75;11.20;;;;;;;21.11;100.00;99187.31;5125147;28;20204;-76
2023/06/22 03:34:37;;;;;;;13.68;12.30;;;;;;;21.09;100.00;99188.50;5122950;28;20270;-76
2023/06/22 03:37:07;;;;;;;12.35;11.15;;;;;;;21.12;100.00;99178.22;5128377;28;20198;-76
2023/06/22 03:39:36;;;;;;;14.57;10.98;;;;;;;21.20;100.00;99184.66;5123405;27;20226;-76
2023/06/22 03:42:05;;;;;;;13.32;11.95;;;;;;;21.26;100.00;99182.19;5121114;28;20198;-77
2023/06/22 03:44:36;;;;;;;12.60;11.40;;;;;;;21.08;100.00;99179.56;5126731;28;20221;-77
2023/06/22 03:47:07;;;;;;;12.52;11.25;;;;;;;21.32;100.00;99178.78;5133499;28;20198;-77
2023/06/22 03:49:38;;;;;;;13.68;12.25;;;;;;;21.18;100.00;99181.28;5126736;28;20195;-77
2023/06/22 03:52:10;;;;;;;13.40;11.45;;;;;;;21.31;100.00;99178.97;5127116;28;20194;-77
2023/06/22 03:54:40;;;;;;;13.30;11.98;;;;;;;21.28;100.00;99182.84;5124985;28;20194;-77
2023/06/22 03:57:09;;;;;;;16.98;12.77;;;;;;;21.23;100.00;99174.41;5127171;28;20198;-76
2023/06/22 03:59:37;;;;;;;12.45;11.20;;;;;;;21.32;100.00;99181.50;5123956;28;20241;-77
2023/06/22 04:02:06;;;;;;;12.85;11.65;;;;;;;21.22;100.00;99183.47;5129458;28;20201;-77
2023/06/22 04:04:35;;;;;;;13.05;11.73;;;;;;;21.14;100.00;99184.31;5121052;28;20198;-77
2023/06/22 04:07:04;;;;;;;14.65;12.32;;;;;;;21.10;100.00;99184.78;5121655;28;20198;-77
2023/06/22 04:09:34;;;;;;;12.15;10.93;;;;;;;20.96;100.00;99186.28;5127075;28;20201;-77
2023/06/22 04:12:03;;;;;;;14.27;12.20;;;;;;;21.00;100.00;99200.25;5124494;28;20226;-77
2023/06/22 04:14:32;;;;;;;13.75;12.23;;;;;;;20.90;100.00;99204.94;5129107;28;20218;-76
2023/06/22 04:17:00;;;;;;;13.25;11.85;;;;;;;20.94;100.00;99206.28;5130407;28;20199;-77
2023/06/22 04:19:29;;;;;;;12.87;11.57;;;;;;;20.86;100.00;99205.28;5127768;28;20219;-77
2023/06/22 04:21:57;;;;;;;13.70;12.33;;;;;;;20.85;100.00;99205.44;5124991;28;20206;-77
2023/06/22 04:24:25;;;;;;;13.70;12.35;;;;;;;20.61;100.00;99218.78;5119538;28;20198;-76
2023/06/22 04:26:55;;;;;;;12.47;11.23;;;;;;;20.77;100.00;99210.78;5082711;28;20195;-76
2023/06/22 04:29:29;;;;;;;16.87;12.07;;;;;;;20.75;100.00;99207.38;5082948;28;20202;-76
2023/06/22 04:32:02;;;;;;;13.87;12.07;;;;;;;20.84;100.00;99206.41;5089000;28;20205;-76
2023/06/22 04:34:32;;;;;;;13.82;12.30;;;;;;;20.69;100.00;99208.06;5080729;28;20706;-77
2023/06/22 04:37:01;;;;;;;15.73;12.90;;;;;;;20.78;100.00;99216.00;5083676;28;20207;-76
2023/06/22 04:39:29;;;;;;;13.07;11.60;;;;;;;20.66;100.00;99220.00;5085853;28;20239;-77
2023/06/22 04:42:00;;;;;;;13.83;12.47;;;;;;;20.64;100.00;99221.97;5085420;28;20208;-76
2023/06/22 04:44:28;;;;;;;13.07;11.87;;;;;;;20.74;100.00;99211.09;5101046;27;20187;-77
2023/06/22 04:47:02;;;;;;;12.87;11.57;;;;;;;20.66;100.00;99206.53;5132336;27;20195;-76
2023/06/22 04:49:35;;;;;;;12.90;11.60;;;;;;;20.74;100.00;99206.53;5126700;27;20202;-77
2023/06/22 04:52:07;;;;;;;13.97;12.10;;;;;;;20.79;100.00;99206.91;5132387;27;20277;-77
2023/06/22 04:54:37;;;;;;;12.87;11.67;;;;;;;20.76;100.00;99209.94;5129743;27;20253;-77
2023/06/22 04:57:10;;;;;;;13.30;11.50;;;;;;;20.80;100.00;99203.22;5130772;27;20194;-76
2023/06/22 04:59:41;;;;;;;13.90;11.43;;;;;;;20.91;100.00;99206.63;5132248;27;20210;-76
2023/06/22 05:02:10;;;;;;;13.57;11.60;;;;;;;20.94;100.00;99207.16;5127992;27;20472;-76
2023/06/22 05:04:40;;;;;;;12.43;11.20;;;;;;;20.86;100.00;99209.81;5134900;27;20195;-76
2023/06/22 05:07:10;;;;;;;13.70;12.40;;;;;;;20.90;100.00;99215.69;5122968;27;20199;-76
2023/06/22 05:09:40;;;;;;;13.88;12.43;;;;;;;20.93;100.00;99213.53;5069815;28;20219;-77
2023/06/22 05:12:12;;;;;;;12.60;11.38;;;;;;;21.03;100.00;99210.69;5064901;28;20215;-76
2023/06/22 05:14:40;;;;;;;13.35;12.07;;;;;;;21.09;100.00;99212.75;5070002;28;20189;-77
2023/06/22 05:17:13;;;;;;;12.32;11.18;;;;;;;21.25;100.00;99209.25;5062512;28;20219;-76
2023/06/22 05:19:44;;;;;;;13.35;11.98;;;;;;;21.35;100.00;99193.81;5066059;28;20222;-76
2023/06/22 05:22:16;;;;;;;13.98;11.73;;;;;;;21.42;100.00;99190.28;5068208;28;20188;-77
2023/06/22 05:24:45;;;;;;;13.60;12.20;;;;;;;21.32;100.00;99207.59;5066188;28;20230;-77
2023/06/22 05:27:15;;;;;;;13.25;11.85;;;;;;;21.56;100.00;99204.94;5063170;28;20202;-77
2023/06/22 05:29:44;;;;;;;12.70;11.40;;;;;;;21.58;100.00;99207.47;5065849;28;20228;-77
2023/06/22 05:32:12;;;;;;;15.27;11.40;;;;;;;21.66;100.00;99205.63;5061820;28;20198;-77
2023/06/22 05:34:40;;;;;;;12.13;10.85;;;;;;;21.84;100.00;99200.06;5067337;28;20256;-77
2023/06/22 05:37:10;;;;;;;16.08;11.90;;;;;;;21.91;100.00;99202.94;5058490;28;20231;-77
2023/06/22 05:39:39;;;;;;;16.00;12.13;;;;;;;22.08;100.00;99199.22;5071193;28;20228;-77
2023/06/22 05:42:08;;;;;;;12.35;11.05;;;;;;;22.22;100.00;99186.91;5126165;27;20220;-77
2023/06/22 05:44:40;;;;;;;12.35;11.10;;;;;;;22.19;100.00;99177.28;5132397;27;20214;-76
2023/06/22 05:47:09;;;;;;;13.10;11.70;;;;;;;22.22;100.00;99178.81;5132626;27;20225;-77
2023/06/22 05:49:37;;;;;;;12.38;11.18;;;;;;;22.14;100.00;99178.81;5130820;27;20198;-77
2023/06/22 05:52:05;;;;;;;12.52;11.23;;;;;;;22.38;100.00;99176.06;5126111;27;20209;-77
2023/06/22 05:54:34;;;;;;;13.95;11.95;;;;;;;22.37;100.00;99173.53;5127911;27;20404;-77
2023/06/22 05:57:02;;;;;;;12.05;10.82;;;;;;;22.47;100.00;99185.81;5131032;27;20194;-77
2023/06/22 05:59:31;;;;;;;11.95;10.65;;;;;;;22.52;100.00;99179.91;5121282;27;20217;-77
2023/06/22 06:02:01;;;;;;;12.65;11.25;;;;;;;22.62;100.00;99172.44;5124826;27;20198;-77
2023/06/22 06:04:29;;;;;;;12.48;11.15;;;;;;;22.77;100.00;99172.53;5129591;27;20193;-77
2023/06/22 06:06:58;;;;;;;12.48;10.35;;;;;;;22.81;100.00;99166.63;5125218;27;20202;-77
2023/06/22 06:09:27;;;;;;;11.80;10.60;;;;;;;23.02;100.00;99157.09;5130468;27;20201;-77
2023/06/22 06:11:56;;;;;;;10.98;9.88;;;;;;;23.12;100.00;99155.00;5128967;27;20194;-77
2023/06/22 06:14:24;;;;;;;11.82;10.63;;;;;;;23.16;100.00;99148.19;5130936;27;20258;-77
2023/06/22 06:16:52;;;;;;;11.52;10.43;;;;;;;23.38;100.00;99150.09;5129391;27;20281;-77
2023/06/22 06:19:22;;;;;;;12.13;10.82;;;;;;;23.42;100.00;99162.22;5122213;27;20277;-77
2023/06/22 06:21:51;;;;;;;11.80;10.60;;;;;;;23.58;100.00;99157.72;5130187;27;20202;-77
2023/06/22 06:24:19;;;;;;;11.65;10.18;;;;;;;23.65;100.00;99156.00;5130506;27;20254;-77
2023/06/22 06:26:48;;;;;;;11.05;9.77;;;;;;;23.70;100.00;99148.16;5128761;27;20236;-77
2023/06/22 06:29:17;;;;;;;11.98;10.18;;;;;;;23.62;100.00;99142.81;5122550;27;20633;-76
2023/06/22 06:31:46;;;;;;;11.52;10.32;;;;;;;23.64;100.00;99143.47;5125309;27;20198;-76
2023/06/22 06:34:14;;;;;;;12.95;10.30;;;;;;;23.79;100.00;99144.38;5062779;28;20200;-76
2023/06/22 06:36:45;;;;;;;11.00;9.85;;;;;;;23.79;100.00;99152.50;5064680;28;20200;-77
2023/06/22 06:39:14;;;;;;;11.90;10.32;;;;;;;23.67;100.00;99146.69;5064640;28;20232;-77
2023/06/22 06:41:42;;;;;;;11.40;9.65;;;;;;;23.86;100.00;99139.06;5064921;28;20216;-77
2023/06/22 06:44:10;;;;;;;11.02;9.88;;;;;;;24.14;100.00;99132.03;5070781;28;20232;-77
2023/06/22 06:46:39;;;;;;;11.02;9.45;;;;;;;24.20;100.00;99125.84;5063949;28;20198;-77
2023/06/22 06:49:08;;;;;;;10.75;9.43;;;;;;;24.32;100.00;99120.00;5064099;28;20196;-78
2023/06/22 06:51:36;;;;;;;11.05;9.98;;;;;;;24.19;100.00;99128.75;5070758;27;20217;-77
2023/06/22 06:54:07;;;;;;;11.27;9.60;;;;;;;24.31;100.00;99129.97;5131372;27;20203;-77
2023/06/22 06:56:36;;;;;;;14.35;10.25;;;;;;;24.45;100.00;99131.03;5129447;27;20198;-77
2023/06/22 06:59:05;;;;;;;10.43;9.32;;;;;;;24.64;100.00;99121.47;5119681;27;20218;-77
2023/06/22 07:01:35;;;;;;;11.05;8.75;;;;;;;24.70;100.00;99121.53;5095974;27;20214;-77
2023/06/22 07:04:04;;;;;;;10.20;8.93;;;;;;;24.52;100.00;99123.84;5125273;27;20194;-77
2023/06/22 07:06:33;;;;;;;10.88;8.93;;;;;;;24.58;100.00;99127.63;5129062;27;20206;-76
2023/06/22 07:09:03;;;;;;;11.38;9.48;;;;;;;24.54;100.00;99119.91;5129027;27;20194;-77
2023/06/22 07:11:35;;;;;;;9.90;8.90;;;;;;;24.65;100.00;99109.59;5125136;27;20186;-77
2023/06/22 07:14:03;;;;;;;9.82;8.88;;;;;;;24.72;100.00;99108.66;5128194;27;20205;-78
2023/06/22 07:16:32;;;;;;;10.90;8.80;;;;;;;24.71;100.00;99112.41;5125633;27;20198;-77
2023/06/22 07:19:00;;;;;;;9.15;8.25;;;;;;;24.91;100.00;99107.22;5127604;27;20204;-77
2023/06/22 07:21:29;;;;;;;9.52;8.07;;;;;;;24.91;100.00;99106.38;5126516;27;20214;-77
2023/06/22 07:23:57;;;;;;;10.85;9.50;;;;;;;24.88;100.00;99106.75;5130692;28;20221;-77
2023/06/22 07:26:25;;;;;;;10.98;8.98;;;;;;;25.14;100.00;99095.38;5123601;27;20205;-77
2023/06/22 07:28:55;;;;;;;11.98;8.32;;;;;;;25.34;100.00;99083.69;5127854;27;20703;-77
2023/06/22 07:31:25;;;;;;;12.30;9.35;;;;;;;25.22;100.00;99084.41;5115178;28;20252;-78
2023/06/22 07:33:53;;;;;;;13.77;9.25;;;;;;;25.19;100.00;99095.63;5126500;28;20187;-77
2023/06/22 07:36:22;;;;;;;12.25;9.88;;;;;;;25.40;100.00;99087.50;5127425;28;20194;-77
2023/06/22 07:38:50;;;;;;;10.38;9.38;;;;;;;25.48;100.00;99086.50;5129429;27;20194;-77
2023/06/22 07:41:19;;;;;;;9.63;8.70;;;;;;;25.83;100.00;99087.44;5130312;28;20210;-77
2023/06/22 07:43:47;;;;;;;9.52;8.63;;;;;;;25.75;100.00;99083.00;5081364;28;20194;-77
2023/06/22 07:46:17;;;;;;;10.30;9.18;;;;;;;25.89;100.00;99078.53;5125372;28;20190;-78
2023/06/22 07:48:45;;;;;;;12.00;8.63;;;;;;;25.74;100.00;99091.34;5127520;28;20261;-77
2023/06/22 07:51:14;;;;;;;9.57;8.55;;;;;;;25.90;100.00;99088.34;5126147;28;20202;-77
2023/06/22 07:53:43;;;;;;;10.60;8.88;;;;;;;25.89;100.00;99082.09;5127675;28;20212;-77
2023/06/22 07:56:12;;;;;;;11.05;8.95;;;;;;;25.90;100.00;99089.19;5127944;28;20183;-77
2023/06/22 07:58:42;;;;;;;9.90;8.38;;;;;;;25.89;100.00;99079.38;5133168;28;20218;-77
2023/06/22 08:01:10;;;;;;;9.50;8.30;;;;;;;25.97;100.00;99089.25;5125365;28;20295;-77
2023/06/22 08:03:46;;;;;;;9.20;8.30;;;;;;;26.23;100.00;99078.50;5125204;27;20202;-77
2023/06/22 08:06:14;;;;;;;9.40;8.18;;;;;;;26.45;100.00;99079.28;5130533;27;20201;-77
2023/06/22 08:08:47;;;;;;;8.88;7.97;;;;;;;26.49;100.00;99066.13;5131005;27;20220;-77
2023/06/22 08:11:16;;;;;;;9.32;8.00;;;;;;;26.46;100.00;99055.69;5128064;27;20198;-77
2023/06/22 08:13:44;;;;;;;8.82;8.00;;;;;;;26.66;100.00;99053.03;5133581;27;20657;-77
2023/06/22 08:16:13;;;;;;;9.63;8.07;;;;;;;26.79;100.00;99047.63;5127482;27;20194;-77
2023/06/22 08:18:44;;;;;;;9.00;7.95;;;;;;;26.94;100.00;99047.47;5132761;27;20195;-77
2023/06/22 08:21:13;;;;;;;8.80;7.90;;;;;;;26.93;100.00;99033.03;5129922;27;20222;-78
2023/06/22 08:23:41;;;;;;;9.70;8.70;;;;;;;27.00;100.00;99033.03;5126568;27;20191;-77
2023/06/22 08:26:10;;;;;;;10.68;7.93;;;;;;;27.25;100.00;99034.13;5125306;27;20649;-78
2023/06/22 08:28:38;;;;;;;14.63;11.57;;;;;;;27.53;100.00;99033.94;5136733;27;20281;-77
2023/06/22 08:31:07;;;;;;;11.77;8.02;;;;;;;27.64;100.00;99035.19;5129420;27;20213;-78
2023/06/22 08:33:35;;;;;;;8.88;7.97;;;;;;;27.57;100.00;99026.16;5126209;27;20300;-78
2023/06/22 08:36:06;;;;;;;10.52;8.88;;;;;;;27.61;100.00;99031.00;5125661;27;20200;-77
2023/06/22 08:38:34;;;;;;;8.63;7.70;;;;;;;27.86;100.00;99022.19;5125546;27;20186;-78
2023/06/22 08:41:02;;;;;;;9.05;7.80;;;;;;;27.54;100.00;99032.03;5046565;28;20240;-77
2023/06/22 08:43:31;;;;;;;9.05;7.90;;;;;;;27.85;100.00;99032.22;5049591;28;20232;-77
2023/06/22 08:45:59;;;;;;;9.90;8.90;;;;;;;28.00;100.00;99023.00;5005729;28;20195;-77
2023/06/22 08:48:28;;;;;;;17.65;16.02;;;;;;;28.22;100.00;99011.59;5011955;28;20222;-77
2023/06/22 08:50:56;;;;;;;10.18;9.25;;;;;;;28.24;100.00;99016.81;5012887;28;20198;-79
2023/06/22 08:53:27;;;;;;;9.63;8.63;;;;;;;28.12;100.00;99013.94;5010266;28;20213;-77
2023/06/22 08:55:56;;;;;;;9.13;8.23;;;;;;;28.58;100.00;99002.03;5012146;28;20684;-77
2023/06/22 08:58:24;;;;;;;8.25;7.50;;;;;;;28.53;100.00;99004.56;5016759;28;20224;-78
2023/06/22 09:00:53;;;;;;;9.23;8.32;;;;;;;28.71;100.00;99006.56;5051489;28;20201;-78
2023/06/22 09:03:21;;;;;;;10.55;8.45;;;;;;;28.99;100.00;99008.94;5056280;28;20253;-78
2023/06/22 09:05:50;;;;;;;8.32;7.63;;;;;;;28.86;100.00;99006.28;5104495;28;20629;-78
2023/06/22 09:08:18;;;;;;;9.35;8.27;;;;;;;28.65;100.00;98996.53;5112546;28;20190;-78
2023/06/22 09:10:49;;;;;;;10.02;8.98;;;;;;;28.90;100.00;98996.63;5107116;28;20191;-78
2023/06/22 09:13:17;;;;;;;8.85;7.97;;;;;;;29.00;100.00;99000.53;5111575;28;20228;-77
2023/06/22 09:15:46;;;;;;;9.75;8.60;;;;;;;28.92;100.00;98994.50;5105733;28;20676;-78
2023/06/22 09:18:14;;;;;;;9.05;8.05;;;;;;;29.32;100.00;98990.41;5102404;28;20203;-78
2023/06/22 09:20:43;;;;;;;9.35;8.55;;;;;;;29.65;100.00;98986.56;5111119;28;20201;-78
2023/06/22 09:23:12;;;;;;;9.73;8.77;;;;;;;29.68;100.00;98990.72;5107154;28;20642;-78
2023/06/22 09:25:41;;;;;;;8.82;8.05;;;;;;;29.60;100.00;98989.13;5111190;28;20187;-78
2023/06/22 09:28:10;;;;;;;9.18;8.07;;;;;;;29.54;100.00;98990.88;5108916;28;20226;-78
2023/06/22 09:30:38;;;;;;;9.50;8.60;;;;;;;29.61;100.00;98996.25;5103593;28;20205;-81
2023/06/22 09:33:07;;;;;;;8.75;7.95;;;;;;;28.99;100.00;98987.94;5105700;28;20218;-81
2023/06/22 09:35:35;;;;;;;10.38;8.75;;;;;;;29.53;100.00;98981.03;5107600;28;20202;-81
2023/06/22 09:38:04;;;;;;;9.68;8.70;;;;;;;29.81;100.00;98969.56;5106539;28;20197;-81
2023/06/22 09:40:35;;;;;;;9.35;8.45;;;;;;;29.97;100.00;98973.59;5105220;28;20234;-81
2023/06/22 09:43:05;;;;;;;8.70;7.95;;;;;;;29.90;100.00;98973.66;5109735;28;20257;-81
2023/06/22 09:45:35;;;;;;;9.43;8.32;;;;;;;29.86;100.00;98964.28;5112524;28;20199;-81
2023/06/22 09:48:04;;;;;;;9.15;7.90;;;;;;;30.11;100.00;98960.63;5103737;28;20700;-81
2023/06/22 09:50:32;;;;;;;8.23;7.53;;;;;;;30.28;100.00;98955.38;5104370;28;20225;-81
2023/06/22 09:53:00;;;;;;;8.57;7.78;;;;;;;30.50;100.00;98951.09;5109832;28;20642;-81
2023/06/22 09:55:28;;;;;;;9.02;7.60;;;;;;;30.68;100.00;98944.75;5115021;28;20195;-80
2023/06/22 09:57:57;;;;;;;9.88;7.93;;;;;;;30.54;98.95;98941.34;5107985;28;20222;-81
2023/06/22 10:00:26;;;;;;;8.60;7.80;;;;;;;30.17;100.00;98941.44;5114854;28;20190;-81
2023/06/22 10:02:57;;;;;;;7.85;7.20;;;;;;;30.23;100.00;98944.31;5110468;28;20317;-81
2023/06/22 10:05:28;;;;;;;8.57;7.78;;;;;;;30.35;100.00;98934.25;5109555;28;20203;-81
2023/06/22 10:07:57;;;;;;;9.77;7.75;;;;;;;30.45;100.00;98929.06;5089062;28;20256;-81
2023/06/22 10:10:25;;;;;;;9.35;7.60;;;;;;;30.67;100.00;98922.03;5105652;28;20199;-80
2023/06/22 10:12:57;;;;;;;8.98;8.18;;;;;;;30.49;100.00;98922.06;5045080;28;20201;-81
2023/06/22 10:15:26;;;;;;;7.95;7.25;;;;;;;30.86;100.00;98933.72;5049063;28;20208;-80
2023/06/22 10:17:57;;;;;;;8.70;7.90;;;;;;;31.38;98.66;98931.19;5044635;28;20212;-81
2023/06/22 10:20:26;;;;;;;9.63;8.10;;;;;;;30.97;100.00;98923.88;5049324;28;20205;-81
2023/06/22 10:22:55;;;;;;;8.82;7.93;;;;;;;31.19;98.28;98926.88;5043497;28;20240;-81
2023/06/22 10:25:28;;;;;;;8.25;7.45;;;;;;;31.28;93.54;98926.31;5047043;28;20201;-81
2023/06/22 10:27:57;;;;;;;8.57;7.68;;;;;;;30.57;97.88;98921.72;5048874;28;20255;-81
2023/06/22 10:30:25;;;;;;;8.85;7.93;;;;;;;30.84;98.68;98907.69;5060538;28;20194;-81
2023/06/22 10:32:54;;;;;;;8.77;7.55;;;;;;;31.24;89.97;98897.75;5107469;28;20204;-81
2023/06/22 10:35:24;;;;;;;8.15;7.20;;;;;;;31.49;86.96;98885.72;5110354;28;20190;-81
2023/06/22 10:37:52;;;;;;;9.18;6.95;;;;;;;31.66;82.09;98883.91;5102700;28;20220;-80
2023/06/22 10:40:20;;;;;;;7.93;7.13;;;;;;;31.64;79.91;98877.81;5121350;27;20225;-81
2023/06/22 10:42:50;;;;;;;7.05;6.43;;;;;;;31.58;79.08;98871.41;5128921;27;20222;-80
2023/06/22 10:45:18;;;;;;;7.57;6.78;;;;;;;31.69;79.07;98868.88;5128989;27;20198;-81
2023/06/22 10:47:47;;;;;;;7.53;6.90;;;;;;;32.17;76.46;98865.75;5125726;27;20198;-81
2023/06/22 10:50:15;;;;;;;8.57;6.82;;;;;;;32.45;72.98;98860.28;5127506;27;20206;-81
2023/06/22 10:52:45;;;;;;;7.13;6.35;;;;;;;32.76;67.35;98852.56;5134490;27;20186;-81
2023/06/22 10:55:13;;;;;;;6.80;6.10;;;;;;;32.56;66.47;98855.81;5129059;27;20194;-77
2023/06/22 10:57:44;;;;;;;6.93;6.25;;;;;;;32.37;67.18;98854.38;5124868;27;20217;-77
2023/06/22 11:00:15;;;;;;;10.27;6.65;;;;;;;32.61;66.12;98842.16;5127505;27;20194;-77
2023/06/22 11:02:44;;;;;;;6.80;6.15;;;;;;;32.75;64.79;98840.75;5123757;27;20214;-78
2023/06/22 11:05:13;;;;;;;6.57;5.97;;;;;;;32.33;65.32;98831.25;5128578;27;20205;-77
2023/06/22 11:07:43;;;;;;;6.50;5.80;;;;;;;32.45;67.13;98830.13;5122592;27;20194;-78
2023/06/22 11:10:13;;;;;;;6.53;6.03;;;;;;;32.32;66.27;98826.84;5124211;27;20190;-77
2023/06/22 11:12:43;;;;;;;9.27;6.35;;;;;;;32.22;66.53;98827.47;5123705;27;20206;-77
2023/06/22 11:15:11;;;;;;;9.18;6.63;;;;;;;32.50;64.90;98823.03;5126942;27;20202;-78
2023/06/22 11:17:40;;;;;;;7.03;5.57;;;;;;;32.68;63.00;98822.81;5121726;27;20193;-78
2023/06/22 11:20:10;;;;;;;7.50;6.32;;;;;;;32.77;63.68;98813.06;5129876;27;20202;-78
2023/06/22 11:22:39;;;;;;;9.18;6.60;;;;;;;32.65;64.82;98806.84;5126236;27;20222;-78
2023/06/22 11:25:11;;;;;;;7.13;6.43;;;;;;;32.63;62.55;98798.88;5122748;27;20226;-78
2023/06/22 11:27:41;;;;;;;6.50;5.90;;;;;;;32.45;63.79;98794.47;5126929;27;20190;-77
2023/06/22 11:30:10;;;;;;;6.85;5.93;;;;;;;32.41;64.56;98789.72;5089587;28;20198;-78